Time;durP1;ratioP1;P1;durP2;ratioP2;P2;SDS_P1;SDS_P2;PMS_P1;PMS_P2;Temp;Humidity;BMP_temperature;BMP_pressure;BME280_temperature;BME280_humidity;BME280_pressure;Samples;Min_cycle;Max_cycle;Signal;HPM_P1;HPM_P2
2022/08/22 00:00:51;;;;;;;6.63;2.92;;;17.60;99.90;;;;;;4953202;28;20147;-78
2022/08/22 00:03:20;;;;;;;7.43;3.42;;;17.60;99.90;;;;;;4981506;28;20035;-78
2022/08/22 00:06:10;;;;;;;9.57;3.08;;;17.50;99.90;;;;;;4958185;28;20058;-78
2022/08/22 00:09:04;;;;;;;7.85;3.10;;;17.60;99.90;;;;;;4963362;28;20081;-78
2022/08/22 00:11:47;;;;;;;7.22;3.05;;;17.50;99.90;;;;;;4950955;28;20043;-78
2022/08/22 00:14:19;;;;;;;8.35;2.80;;;17.50;99.90;;;;;;4960457;28;20038;-78
2022/08/22 00:17:01;;;;;;;9.60;3.25;;;17.50;99.90;;;;;;4952469;28;20054;-78
2022/08/22 00:19:45;;;;;;;7.63;3.08;;;17.50;99.90;;;;;;4968759;28;20696;-78
2022/08/22 00:22:54;;;;;;;8.95;3.75;;;17.50;99.90;;;;;;4947868;28;20579;-78
2022/08/22 00:25:41;;;;;;;9.48;3.08;;;17.50;99.90;;;;;;4959492;28;20454;-78
2022/08/22 00:29:14;;;;;;;7.90;3.30;;;17.50;99.90;;;;;;4962634;28;20039;-78
2022/08/22 00:31:44;;;;;;;;;;;17.50;99.90;;;;;;4952722;28;20139;-78
2022/08/22 00:34:21;;;;;;;8.27;3.20;;;17.50;99.90;;;;;;4975440;28;20365;-78
2022/08/22 00:37:04;;;;;;;6.20;3.35;;;17.50;99.90;;;;;;4981210;28;20137;-78
2022/08/22 00:39:57;;;;;;;6.47;3.00;;;17.40;99.90;;;;;;4957445;28;20070;-78
2022/08/22 00:42:50;;;;;;;10.07;3.97;;;17.40;99.90;;;;;;4962647;28;20112;-79
2022/08/22 00:45:36;;;;;;;7.32;3.20;;;17.40;99.90;;;;;;4962240;28;20483;-78
2022/08/22 00:48:17;;;;;;;7.65;3.08;;;17.40;99.90;;;;;;4962319;28;20454;-78
2022/08/22 00:51:24;;;;;;;9.35;3.38;;;17.30;99.90;;;;;;4960515;28;20042;-78
2022/08/22 00:54:27;;;;;;;7.97;3.10;;;17.30;99.90;;;;;;4959880;28;20049;-78
2022/08/22 00:57:21;;;;;;;8.30;3.08;;;17.30;99.90;;;;;;4970650;28;20049;-78
2022/08/22 01:00:14;;;;;;;6.63;2.80;;;17.30;99.90;;;;;;4948794;28;20556;-78
2022/08/22 01:02:58;;;;;;;8.68;3.38;;;17.20;99.90;;;;;;4954484;28;20081;-78
2022/08/22 01:05:36;;;;;;;6.78;2.92;;;17.20;99.90;;;;;;4978045;28;20045;-78
2022/08/22 01:08:23;;;;;;;8.10;3.42;;;17.20;99.90;;;;;;4959064;28;20117;-78
2022/08/22 01:11:09;;;;;;;5.90;3.10;;;17.10;99.90;;;;;;4980918;28;20047;-78
2022/08/22 01:13:35;;;;;;;8.13;3.78;;;17.10;99.90;;;;;;4957503;28;20047;-78
2022/08/22 01:16:17;;;;;;;9.57;3.35;;;17.00;99.90;;;;;;4964072;28;20039;-78
2022/08/22 01:19:26;;;;;;;9.35;3.65;;;17.00;99.90;;;;;;4966950;28;20657;-78
2022/08/22 01:22:17;;;;;;;9.20;3.60;;;17.00;99.90;;;;;;4956258;28;20507;-78
2022/08/22 01:25:20;;;;;;;7.15;3.40;;;16.90;99.90;;;;;;4958868;28;20043;-78
2022/08/22 01:28:50;;;;;;;6.68;3.45;;;16.90;99.90;;;;;;4967450;28;20039;-78
2022/08/22 01:31:34;;;;;;;9.35;3.72;;;16.80;99.90;;;;;;4966721;28;20043;-78
2022/08/22 01:34:42;;;;;;;6.30;3.10;;;16.80;99.90;;;;;;4959945;28;20041;-78
2022/08/22 01:37:45;;;;;;;10.07;3.60;;;16.80;99.90;;;;;;4973698;28;20392;-78
2022/08/22 01:40:26;;;;;;;10.88;3.75;;;16.70;99.90;;;;;;4974982;28;20046;-77
2022/08/22 01:43:09;;;;;;;7.90;3.60;;;16.70;99.90;;;;;;4970655;28;20039;-78
2022/08/22 01:45:41;;;;;;;7.47;3.42;;;16.60;99.90;;;;;;4967605;28;20054;-78
2022/08/22 01:48:07;;;;;;;9.95;3.40;;;16.60;99.90;;;;;;4966410;28;20082;-78
2022/08/22 01:50:38;;;;;;;8.13;3.25;;;16.60;99.90;;;;;;4964806;28;20070;-78
2022/08/22 01:53:28;;;;;;;8.30;3.85;;;16.60;99.90;;;;;;4955841;28;20492;-78
2022/08/22 01:56:09;;;;;;;8.27;3.67;;;16.60;99.90;;;;;;4963063;28;20070;-77
2022/08/22 01:58:42;;;;;;;7.60;3.95;;;16.60;99.90;;;;;;4963842;28;20403;-78
2022/08/22 02:01:40;;;;;;;10.45;3.83;;;16.60;99.90;;;;;;4965171;28;20089;-78
2022/08/22 02:04:17;;;;;;;9.05;4.03;;;16.60;99.90;;;;;;4978196;28;20585;-79
2022/08/22 02:07:18;;;;;;;6.70;3.38;;;16.60;99.90;;;;;;4960342;28;20039;-79
2022/08/22 02:10:21;;;;;;;7.95;3.58;;;16.60;99.90;;;;;;4974759;28;20039;-78
2022/08/22 02:13:07;;;;;;;8.70;3.70;;;16.60;99.90;;;;;;4959244;28;20047;-78
2022/08/22 02:15:38;;;;;;;7.15;3.42;;;16.60;99.90;;;;;;4976565;28;20038;-78
2022/08/22 02:18:04;;;;;;;9.25;3.88;;;16.60;99.90;;;;;;4975173;28;20487;-78
2022/08/22 02:20:46;;;;;;;6.07;3.47;;;16.60;99.90;;;;;;4989262;28;20111;-79
2022/08/22 02:23:20;;;;;;;7.05;2.97;;;16.60;99.90;;;;;;4967502;28;20057;-79
2022/08/22 02:25:55;;;;;;;6.05;3.10;;;16.60;99.90;;;;;;4968336;28;20059;-79
2022/08/22 02:29:05;;;;;;;6.03;3.40;;;16.60;99.90;;;;;;4968171;28;20051;-78
2022/08/22 02:32:12;;;;;;;5.10;3.13;;;16.50;99.90;;;;;;4970217;28;20631;-78
2022/08/22 02:34:44;;;;;;;6.63;3.65;;;16.60;99.90;;;;;;4968640;28;20051;-78
2022/08/22 02:37:16;;;;;;;8.52;3.58;;;16.60;99.90;;;;;;4973405;28;20042;-78
2022/08/22 02:39:42;;;;;;;;;;;16.60;99.90;;;;;;4952531;28;20133;-78
2022/08/22 02:42:20;;;;;;;11.38;3.50;;;16.60;99.90;;;;;;4957763;28;19962;-78
2022/08/22 02:44:59;;;;;;;8.13;3.58;;;16.60;99.90;;;;;;4974614;28;20109;-78
2022/08/22 02:47:34;;;;;;;7.55;3.60;;;16.60;99.90;;;;;;4958767;28;20043;-78
2022/08/22 02:50:02;;;;;;;7.90;3.70;;;16.60;99.90;;;;;;4973289;28;20038;-78
2022/08/22 02:52:47;;;;;;;8.40;4.10;;;16.70;99.90;;;;;;4970403;28;20041;-79
2022/08/22 02:55:20;;;;;;;11.88;3.60;;;16.70;99.90;;;;;;4969494;28;20499;-78
2022/08/22 02:57:59;;;;;;;8.43;4.00;;;16.70;99.90;;;;;;4954423;28;20411;-80
2022/08/22 03:00:28;;;;;;;6.75;3.97;;;16.70;99.90;;;;;;4969984;28;20219;-80
2022/08/22 03:03:12;;;;;;;7.32;3.63;;;16.70;99.90;;;;;;4969406;28;20031;-80
2022/08/22 03:05:38;;;;;;;7.60;3.70;;;16.70;99.90;;;;;;4971769;28;20053;-80
2022/08/22 03:08:15;;;;;;;6.88;3.88;;;16.70;99.90;;;;;;4966248;28;20427;-80
2022/08/22 03:10:53;;;;;;;7.90;4.10;;;16.70;99.90;;;;;;4970407;28;20120;-80
2022/08/22 03:13:30;;;;;;;8.07;3.78;;;16.70;99.90;;;;;;4949360;28;20515;-80
2022/08/22 03:16:15;;;;;;;10.00;4.18;;;16.70;99.90;;;;;;4963384;28;20039;-80
2022/08/22 03:18:58;;;;;;;8.73;3.88;;;16.80;99.90;;;;;;4956387;28;20127;-80
2022/08/22 03:21:43;;;;;;;15.30;4.45;;;16.80;99.90;;;;;;4964649;28;20084;-80
2022/08/22 03:24:24;;;;;;;10.05;4.00;;;16.80;99.90;;;;;;4960242;28;20522;-80
2022/08/22 03:27:16;;;;;;;8.02;4.28;;;16.80;99.90;;;;;;4967860;28;20039;-80
2022/08/22 03:30:20;;;;;;;10.02;4.13;;;16.80;99.90;;;;;;4972074;28;20096;-80
2022/08/22 03:32:50;;;;;;;7.88;4.20;;;16.80;99.90;;;;;;4955921;28;20050;-80
2022/08/22 03:35:29;;;;;;;10.32;4.13;;;16.80;99.90;;;;;;4956658;28;20035;-81
2022/08/22 03:38:10;;;;;;;10.20;3.80;;;16.80;99.90;;;;;;4961656;28;20042;-80
2022/08/22 03:40:56;;;;;;;9.38;3.97;;;16.80;99.90;;;;;;4968969;28;20047;-80
2022/08/22 03:43:37;;;;;;;9.27;3.95;;;16.80;99.90;;;;;;4961191;28;20045;-80
2022/08/22 03:46:24;;;;;;;11.57;4.20;;;16.80;99.90;;;;;;4999676;28;20083;-80
2022/08/22 03:49:04;;;;;;;11.73;4.30;;;16.80;99.90;;;;;;4965732;28;20121;-80
2022/08/22 03:51:57;;;;;;;9.23;3.80;;;16.80;99.90;;;;;;4971144;28;20478;-80
2022/08/22 03:54:37;;;;;;;7.43;3.70;;;16.90;99.90;;;;;;4967582;28;20471;-80
2022/08/22 03:57:06;;;;;;;7.25;4.35;;;16.80;99.90;;;;;;4950754;28;20039;-80
2022/08/22 03:59:58;;;;;;;11.63;4.60;;;16.90;99.90;;;;;;4966212;28;20133;-80
2022/08/22 04:02:59;;;;;;;11.05;4.07;;;16.90;99.90;;;;;;4951920;28;20034;-80
2022/08/22 04:05:42;;;;;;;11.18;4.13;;;16.90;99.90;;;;;;4971320;28;20049;-80
2022/08/22 04:09:10;;;;;;;8.50;3.58;;;16.90;99.90;;;;;;4947476;28;20043;-79
2022/08/22 04:12:00;;;;;;;12.15;4.30;;;16.90;99.90;;;;;;5011631;28;20140;-79
2022/08/22 04:14:38;;;;;;;9.88;4.32;;;16.90;99.90;;;;;;4958362;28;20119;-79
2022/08/22 04:17:35;;;;;;;9.82;4.13;;;16.90;99.90;;;;;;4962645;28;20089;-79
2022/08/22 04:20:25;;;;;;;11.00;4.50;;;16.90;99.90;;;;;;4962455;28;20034;-79
2022/08/22 04:23:12;;;;;;;10.95;4.10;;;16.90;99.90;;;;;;4965638;28;20042;-79
2022/08/22 04:25:42;;;;;;;10.80;4.13;;;16.90;99.90;;;;;;4940961;28;20039;-80
2022/08/22 04:28:26;;;;;;;6.57;3.65;;;16.90;99.90;;;;;;4955530;28;20034;-80
2022/08/22 04:31:04;;;;;;;8.55;3.90;;;17.00;99.90;;;;;;4967326;28;20039;-80
2022/08/22 04:33:56;;;;;;;8.15;3.80;;;17.00;99.90;;;;;;4968116;28;20128;-80
2022/08/22 04:36:33;;;;;;;10.60;4.05;;;17.00;99.90;;;;;;4968305;28;20102;-80
2022/08/22 04:39:04;;;;;;;10.07;4.50;;;17.00;99.90;;;;;;4964064;28;20162;-80
2022/08/22 04:41:29;;;;;;;11.43;4.28;;;17.20;99.90;;;;;;4952036;28;20928;-80
2022/08/22 04:44:09;;;;;;;10.38;4.55;;;17.20;99.90;;;;;;4970575;28;20042;-80
2022/08/22 04:46:46;;;;;;;8.57;4.65;;;17.10;99.90;;;;;;4968960;28;20399;-80
2022/08/22 04:49:31;;;;;;;12.38;5.15;;;17.10;99.90;;;;;;4961947;28;20092;-80
2022/08/22 04:52:23;;;;;;;12.73;4.55;;;17.10;99.90;;;;;;4965482;28;20046;-80
2022/08/22 04:55:01;;;;;;;10.40;4.70;;;17.10;99.90;;;;;;4985717;28;20489;-81
2022/08/22 04:57:33;;;;;;;9.05;4.93;;;17.10;99.90;;;;;;4952267;28;20039;-80
2022/08/22 05:00:08;;;;;;;9.43;5.13;;;17.10;99.90;;;;;;4958214;28;20499;-81
2022/08/22 05:02:37;;;;;;;11.38;5.32;;;17.10;99.90;;;;;;4961649;28;20503;-81
2022/08/22 05:05:09;;;;;;;10.80;4.95;;;17.10;99.90;;;;;;4971258;28;20126;-81
2022/08/22 05:07:38;;;;;;;;;;;17.10;99.90;;;;;;4963105;28;20570;-80
2022/08/22 05:10:15;;;;;;;11.77;4.75;;;17.10;99.90;;;;;;4967069;28;19918;-81
2022/08/22 05:13:05;;;;;;;10.38;4.97;;;17.20;99.90;;;;;;4963714;28;20039;-82
2022/08/22 05:15:40;;;;;;;10.23;4.65;;;17.20;99.90;;;;;;4963541;28;20039;-80
2022/08/22 05:18:14;;;;;;;8.88;4.88;;;17.20;99.90;;;;;;4959157;28;20735;-78
2022/08/22 05:20:45;;;;;;;12.65;5.65;;;17.20;99.90;;;;;;4966723;28;20051;-78
2022/08/22 05:23:23;;;;;;;9.80;4.88;;;17.20;99.90;;;;;;4961481;28;20503;-78
2022/08/22 05:25:53;;;;;;;9.35;4.60;;;17.20;99.90;;;;;;4959807;28;20466;-77
2022/08/22 05:28:50;;;;;;;11.63;4.72;;;17.20;99.90;;;;;;4956316;28;20054;-77
2022/08/22 05:31:22;;;;;;;10.55;4.95;;;17.20;99.90;;;;;;4949891;28;20049;-77
2022/08/22 05:33:54;;;;;;;8.55;4.78;;;17.10;99.90;;;;;;4969111;28;20061;-77
2022/08/22 05:37:04;;;;;;;12.75;5.50;;;17.30;99.90;;;;;;4969890;28;20089;-77
2022/08/22 05:39:32;;;;;;;9.18;4.78;;;17.30;99.90;;;;;;4943254;28;20074;-77
2022/08/22 05:42:01;;;;;;;9.43;5.18;;;17.30;99.90;;;;;;4964654;28;20140;-77
2022/08/22 05:44:36;;;;;;;12.32;4.78;;;17.30;99.90;;;;;;4966481;28;20066;-77
2022/08/22 05:47:17;;;;;;;8.63;4.60;;;17.30;99.90;;;;;;4964601;28;20527;-76
2022/08/22 05:49:54;;;;;;;11.73;5.00;;;17.30;99.90;;;;;;4966751;28;20061;-78
2022/08/22 05:52:35;;;;;;;10.90;4.50;;;17.30;99.90;;;;;;4968973;28;20415;-78
2022/08/22 05:55:37;;;;;;;11.93;4.95;;;17.40;99.90;;;;;;4972301;28;20043;-78
2022/08/22 05:58:31;;;;;;;10.07;5.20;;;17.50;99.90;;;;;;4956274;28;20098;-79
2022/08/22 06:01:50;;;;;;;11.18;4.90;;;17.40;99.90;;;;;;4957660;28;20038;-78
2022/08/22 06:04:34;;;;;;;10.93;5.43;;;17.40;99.90;;;;;;4970542;28;20061;-78
2022/08/22 06:07:39;;;;;;;15.95;5.57;;;17.40;99.90;;;;;;4971627;28;20078;-78
2022/08/22 06:10:18;;;;;;;11.23;5.35;;;17.40;99.90;;;;;;4958225;28;20137;-78
2022/08/22 06:13:04;;;;;;;11.45;5.15;;;17.40;99.90;;;;;;4971974;28;20403;-79
2022/08/22 06:15:56;;;;;;;11.70;5.13;;;17.40;99.90;;;;;;4969307;28;21036;-78
2022/08/22 06:18:25;;;;;;;10.68;5.20;;;17.50;99.90;;;;;;4960296;28;20061;-78
2022/08/22 06:21:01;;;;;;;14.40;5.05;;;17.50;99.90;;;;;;4970286;28;20034;-79
2022/08/22 06:23:35;;;;;;;9.98;4.78;;;17.50;99.90;;;;;;4950091;28;20046;-78
2022/08/22 06:26:01;;;;;;;9.75;4.55;;;17.40;99.90;;;;;;4960857;28;20043;-79
2022/08/22 06:28:39;;;;;;;11.70;4.65;;;17.60;99.90;;;;;;4966014;28;20639;-78
2022/08/22 06:31:16;;;;;;;9.65;4.47;;;17.60;99.90;;;;;;4981612;28;20491;-78
2022/08/22 06:33:43;;;;;;;14.52;4.50;;;17.60;99.90;;;;;;4961830;28;20074;-78
2022/08/22 06:36:52;;;;;;;10.70;4.20;;;17.60;99.90;;;;;;4969159;28;20035;-79
2022/08/22 06:39:22;;;;;;;12.93;4.57;;;17.70;99.90;;;;;;4963922;28;20059;-79
2022/08/22 06:42:03;;;;;;;11.20;4.72;;;17.70;99.90;;;;;;4961037;28;20046;-78
2022/08/22 06:45:04;;;;;;;9.00;4.70;;;17.70;99.90;;;;;;4985902;28;20069;-78
2022/08/22 06:47:36;;;;;;;11.50;4.35;;;17.80;99.90;;;;;;4956875;28;20061;-78
2022/08/22 06:50:18;;;;;;;9.90;4.35;;;17.80;99.90;;;;;;4975143;28;20507;-78
2022/08/22 06:52:56;;;;;;;10.15;4.72;;;17.80;99.90;;;;;;4961540;28;20061;-78
2022/08/22 06:55:25;;;;;;;9.75;4.47;;;17.80;99.90;;;;;;4967635;28;20059;-78
2022/08/22 06:58:03;;;;;;;12.05;4.47;;;17.80;99.90;;;;;;4960854;28;20050;-78
2022/08/22 07:00:32;;;;;;;10.85;4.30;;;17.90;99.90;;;;;;4962748;28;20046;-78
2022/08/22 07:03:27;;;;;;;13.48;4.60;;;17.90;99.90;;;;;;4966854;28;20469;-78
2022/08/22 07:05:54;;;;;;;11.38;4.20;;;18.00;99.90;;;;;;4954379;28;20650;-78
2022/08/22 07:08:23;;;;;;;11.30;4.63;;;18.00;99.90;;;;;;4962554;28;20070;-78
2022/08/22 07:10:57;;;;;;;9.13;4.43;;;18.10;99.90;;;;;;4953924;28;20070;-78
2022/08/22 07:13:26;;;;;;;8.27;3.92;;;18.10;99.90;;;;;;4951604;28;20067;-78
2022/08/22 07:15:58;;;;;;;9.80;4.50;;;18.10;99.90;;;;;;4970185;28;20077;-77
2022/08/22 07:18:25;;;;;;;;;;;18.20;99.90;;;;;;4969215;28;20051;-78
2022/08/22 07:21:03;;;;;;;12.65;4.90;;;18.20;99.90;;;;;;4958983;28;19923;-78
2022/08/22 07:23:46;;;;;;;11.13;4.70;;;18.20;99.90;;;;;;4970176;28;20066;-78
2022/08/22 07:26:31;;;;;;;10.43;4.20;;;18.30;99.90;;;;;;4968750;28;20039;-77
2022/08/22 07:28:56;;;;;;;8.57;3.75;;;18.30;99.90;;;;;;4952941;28;20500;-78
2022/08/22 07:31:28;;;;;;;10.43;4.38;;;18.30;99.90;;;;;;4966856;28;20050;-78
2022/08/22 07:34:04;;;;;;;10.88;3.92;;;18.40;99.90;;;;;;4964048;28;20491;-77
2022/08/22 07:36:45;;;;;;;10.30;4.20;;;18.50;99.90;;;;;;4966910;28;20061;-78
2022/08/22 07:39:27;;;;;;;7.00;3.30;;;18.60;99.90;;;;;;4964302;28;20047;-77
2022/08/22 07:42:08;;;;;;;8.65;3.88;;;18.70;99.90;;;;;;4963279;28;20034;-77
2022/08/22 07:44:54;;;;;;;14.10;4.10;;;18.70;99.90;;;;;;4952217;28;20043;-78
2022/08/22 07:47:26;;;;;;;10.60;3.55;;;18.70;99.90;;;;;;4952499;28;20047;-78
2022/08/22 07:49:56;;;;;;;8.75;3.58;;;18.80;99.90;;;;;;4958985;28;20039;-78
2022/08/22 07:52:23;;;;;;;8.25;3.10;;;18.80;99.90;;;;;;4969583;28;20043;-78
2022/08/22 07:54:56;;;;;;;10.77;3.50;;;18.80;99.90;;;;;;4962486;28;20125;-78
2022/08/22 07:57:37;;;;;;;10.45;3.40;;;18.90;99.90;;;;;;4952221;28;20062;-78
2022/08/22 08:00:12;;;;;;;9.07;3.03;;;18.90;99.90;;;;;;4959085;28;20541;-78
2022/08/22 08:02:51;;;;;;;9.57;3.13;;;19.00;99.90;;;;;;4969662;28;20061;-77
2022/08/22 08:05:20;;;;;;;7.95;3.10;;;19.00;99.90;;;;;;4970460;28;20042;-78
2022/08/22 08:07:46;;;;;;;5.53;2.65;;;19.00;99.90;;;;;;4958778;28;20058;-78
2022/08/22 08:10:18;;;;;;;10.45;2.97;;;19.00;99.90;;;;;;4970276;28;20410;-78
2022/08/22 08:12:57;;;;;;;7.15;3.05;;;19.10;99.90;;;;;;4970259;28;20039;-78
2022/08/22 08:15:24;;;;;;;9.73;3.03;;;19.10;99.90;;;;;;4965643;28;20045;-78
2022/08/22 08:17:57;;;;;;;7.25;2.88;;;19.20;99.90;;;;;;4968563;28;20051;-79
2022/08/22 08:20:26;;;;;;;7.28;3.00;;;19.20;99.90;;;;;;4970030;28;20045;-78
2022/08/22 08:22:54;;;;;;;6.80;2.58;;;19.30;99.90;;;;;;4961850;28;20070;-78
2022/08/22 08:25:24;;;;;;;6.65;2.65;;;19.40;99.90;;;;;;4969471;28;20051;-78
2022/08/22 08:30:42;;;;;;;8.13;2.83;;;19.40;99.90;;;;;;4960277;28;20050;-79
2022/08/22 08:33:14;;;;;;;9.38;3.10;;;19.50;99.90;;;;;;4965316;28;20038;-78
2022/08/22 08:35:45;;;;;;;6.38;3.00;;;19.60;99.90;;;;;;4955413;28;20043;-77
2022/08/22 08:38:21;;;;;;;10.77;2.95;;;19.70;99.90;;;;;;4956494;28;20071;-78
2022/08/22 08:41:00;;;;;;;9.63;2.50;;;19.80;99.90;;;;;;4961668;28;20039;-78
2022/08/22 08:43:35;;;;;;;8.80;3.20;;;19.90;99.90;;;;;;4948681;28;20549;-78
2022/08/22 08:46:33;;;;;;;7.60;3.13;;;20.00;99.90;;;;;;4956114;28;20074;-78
2022/08/22 08:49:43;;;;;;;8.23;2.70;;;20.30;99.90;;;;;;4954746;28;20078;-79
2022/08/22 08:52:25;;;;;;;6.38;2.40;;;20.60;99.90;;;;;;5031577;28;20052;-79
2022/08/22 08:55:19;;;;;;;9.20;2.97;;;20.80;99.90;;;;;;4960728;28;20080;-79
2022/08/22 08:57:54;;;;;;;5.80;2.30;;;21.00;99.90;;;;;;4952465;28;20446;-79
2022/08/22 09:00:44;;;;;;;6.93;2.65;;;21.10;99.90;;;;;;5035969;28;20038;-79
2022/08/22 09:03:31;;;;;;;6.78;2.63;;;21.20;99.90;;;;;;4960431;28;20049;-79
2022/08/22 09:06:14;;;;;;;8.82;2.42;;;21.30;99.90;;;;;;4971025;28;20047;-79
2022/08/22 09:09:03;;;;;;;10.55;2.40;;;21.40;99.90;;;;;;4967275;28;20050;-78
2022/08/22 09:11:47;;;;;;;8.23;2.22;;;21.40;99.90;;;;;;4980047;28;20059;-78
2022/08/22 09:14:12;;;;;;;6.43;2.35;;;21.40;99.90;;;;;;4962219;28;20118;-78
2022/08/22 09:16:51;;;;;;;8.50;2.60;;;21.40;99.90;;;;;;5022749;28;20126;-78
2022/08/22 09:19:31;;;;;;;7.78;2.53;;;21.30;99.90;;;;;;4958288;28;20074;-78
2022/08/22 09:22:12;;;;;;;6.00;2.38;;;21.30;99.90;;;;;;5026745;28;20050;-78
2022/08/22 09:24:43;;;;;;;7.03;2.22;;;21.30;99.90;;;;;;4969678;28;20051;-79
2022/08/22 09:27:27;;;;;;;6.60;2.53;;;21.40;99.90;;;;;;5029369;28;20131;-79
2022/08/22 09:30:03;;;;;;;9.27;2.53;;;21.40;99.90;;;;;;4957514;28;20039;-77
2022/08/22 09:32:33;;;;;;;6.22;2.67;;;21.50;99.90;;;;;;4970686;28;20042;-78
2022/08/22 09:35:11;;;;;;;7.43;2.60;;;21.50;99.90;;;;;;4969276;28;20411;-79
2022/08/22 09:37:52;;;;;;;7.93;2.33;;;21.40;99.90;;;;;;4944494;28;20043;-79
2022/08/22 09:40:28;;;;;;;5.40;2.30;;;21.40;99.90;;;;;;4956913;28;20214;-78
2022/08/22 09:43:18;;;;;;;7.38;2.20;;;21.40;99.90;;;;;;4957683;28;20125;-78
2022/08/22 09:46:16;;;;;;;5.97;2.05;;;21.40;99.90;;;;;;4970927;28;20043;-77
2022/08/22 09:49:03;;;;;;;6.65;2.10;;;21.50;99.90;;;;;;4948683;28;20067;-80
2022/08/22 09:51:43;;;;;;;10.35;2.40;;;21.50;99.90;;;;;;4979703;28;20126;-79
2022/08/22 09:54:11;;;;;;;11.52;2.38;;;21.50;99.90;;;;;;4966587;28;20049;-80
2022/08/22 09:56:54;;;;;;;5.18;1.95;;;21.60;99.90;;;;;;4968738;28;20445;-79
2022/08/22 09:59:37;;;;;;;5.80;2.03;;;21.60;99.90;;;;;;4970527;28;20043;-80
2022/08/22 10:02:27;;;;;;;8.75;2.42;;;21.70;99.90;;;;;;4958742;28;20510;-80
2022/08/22 10:04:58;;;;;;;7.28;2.40;;;21.90;99.90;;;;;;4965007;28;20569;-80
2022/08/22 10:07:54;;;;;;;5.70;2.10;;;21.90;99.90;;;;;;4957743;28;20140;-80
2022/08/22 10:10:24;;;;;;;10.15;2.53;;;22.10;99.90;;;;;;4986155;28;20039;-81
2022/08/22 10:13:17;;;;;;;7.07;2.17;;;22.20;99.90;;;;;;4966729;28;20046;-81
2022/08/22 10:16:11;;;;;;;6.65;2.30;;;22.40;99.90;;;;;;4959283;28;20088;-81
2022/08/22 10:18:55;;;;;;;7.00;1.83;;;22.50;99.90;;;;;;4978721;28;20392;-80
2022/08/22 10:21:36;;;;;;;8.93;2.30;;;22.70;99.90;;;;;;4970113;28;20046;-81
2022/08/22 10:24:25;;;;;;;7.30;2.15;;;22.90;99.90;;;;;;4941606;28;20045;-81
2022/08/22 10:26:54;;;;;;;7.32;2.42;;;23.00;99.80;;;;;;4952925;28;20445;-81
2022/08/22 10:29:58;;;;;;;6.20;2.38;;;23.40;99.90;;;;;;4957992;28;20035;-81
2022/08/22 10:32:56;;;;;;;5.00;2.08;;;23.80;98.70;;;;;;4955069;28;20045;-78
2022/08/22 10:35:29;;;;;;;5.43;1.88;;;24.00;97.60;;;;;;4947750;28;20062;-80
2022/08/22 10:38:31;;;;;;;4.70;2.17;;;24.20;98.60;;;;;;4963462;28;20048;-79
2022/08/22 10:41:25;;;;;;;4.53;2.10;;;24.30;97.50;;;;;;4964093;28;20066;-79
2022/08/22 10:44:05;;;;;;;5.80;2.20;;;24.50;98.00;;;;;;4954381;28;20045;-80
2022/08/22 10:46:48;;;;;;;7.80;2.30;;;24.60;96.60;;;;;;4955831;28;20058;-78
2022/08/22 10:49:39;;;;;;;6.63;2.03;;;24.70;96.10;;;;;;4960914;28;20400;-80
2022/08/22 10:52:13;;;;;;;5.97;1.88;;;24.80;96.20;;;;;;4967153;28;20031;-79
2022/08/22 10:54:44;;;;;;;4.80;2.05;;;25.00;96.10;;;;;;4959036;28;20040;-79
2022/08/22 10:57:35;;;;;;;5.93;2.20;;;25.10;95.90;;;;;;4957416;28;20467;-84
2022/08/22 11:00:16;;;;;;;6.50;2.13;;;25.30;95.60;;;;;;4953207;28;20039;-80
2022/08/22 11:03:11;;;;;;;7.18;2.22;;;25.50;94.00;;;;;;4960275;28;20055;-79
2022/08/22 11:05:45;;;;;;;4.78;1.90;;;25.70;92.90;;;;;;4963084;28;20047;-80
2022/08/22 11:08:42;;;;;;;6.25;2.13;;;25.80;92.70;;;;;;4967930;28;20072;-81
2022/08/22 11:11:26;;;;;;;5.78;2.30;;;25.70;92.20;;;;;;4963017;28;20080;-80
2022/08/22 11:13:58;;;;;;;5.28;2.13;;;25.30;93.00;;;;;;4999143;28;20078;-80
2022/08/22 11:16:41;;;;;;;5.90;1.90;;;25.00;91.90;;;;;;4970136;28;20049;-80
2022/08/22 11:19:28;;;;;;;5.22;1.95;;;24.80;93.20;;;;;;4962279;28;20498;-80
2022/08/22 11:22:00;;;;;;;4.55;2.00;;;24.60;93.20;;;;;;4945620;28;20442;-80
2022/08/22 11:24:25;;;;;;;;;;;24.50;93.60;;;;;;4970735;28;20054;-80
2022/08/22 11:26:59;;;;;;;4.10;1.92;;;24.50;92.40;;;;;;4963918;28;19922;-80
2022/08/22 11:29:55;;;;;;;6.72;2.13;;;24.50;93.20;;;;;;4957859;28;20054;-78
2022/08/22 11:32:36;;;;;;;4.47;2.13;;;24.50;93.20;;;;;;4965523;28;20061;-81
2022/08/22 11:35:30;;;;;;;4.20;1.80;;;24.60;93.70;;;;;;4955683;28;20089;-77
2022/08/22 11:38:04;;;;;;;7.00;2.35;;;24.90;93.30;;;;;;4957208;28;20046;-78
2022/08/22 11:40:33;;;;;;;5.25;2.10;;;25.00;92.90;;;;;;4951009;28;20038;-78
2022/08/22 11:43:35;;;;;;;6.32;2.10;;;25.10;93.00;;;;;;4960466;28;20042;-78
2022/08/22 11:46:23;;;;;;;5.53;2.10;;;25.30;92.60;;;;;;4967673;28;20480;-78
2022/08/22 11:49:08;;;;;;;6.88;2.55;;;25.50;91.60;;;;;;4955978;28;20786;-78
2022/08/22 11:51:39;;;;;;;6.57;2.15;;;25.60;91.50;;;;;;4966710;28;20052;-77
2022/08/22 11:54:16;;;;;;;5.88;2.15;;;25.70;91.80;;;;;;4963479;28;20360;-74
2022/08/22 11:56:59;;;;;;;5.50;1.98;;;25.60;91.20;;;;;;4963510;28;20093;-75
2022/08/22 11:59:41;;;;;;;4.80;2.05;;;25.50;91.10;;;;;;4965979;28;20035;-77
2022/08/22 12:02:24;;;;;;;8.18;2.08;;;25.50;91.20;;;;;;4966846;28;20054;-77
2022/08/22 12:04:57;;;;;;;10.02;2.97;;;25.50;91.60;;;;;;4950527;28;20078;-82
2022/08/22 12:07:34;;;;;;;7.50;2.20;;;25.50;91.80;;;;;;4964596;28;20035;-82
2022/08/22 12:10:11;;;;;;;6.15;2.15;;;25.60;91.70;;;;;;4967972;28;20566;-81
2022/08/22 12:12:51;;;;;;;6.03;2.10;;;25.70;91.80;;;;;;4951108;28;20043;-81
2022/08/22 12:15:22;;;;;;;10.07;2.70;;;25.90;91.70;;;;;;4965817;28;20176;-81
2022/08/22 12:17:54;;;;;;;;;;;26.10;91.30;;;;;;4954581;28;20544;-82
2022/08/22 12:20:44;;;;;;;7.65;2.00;;;26.20;90.30;;;;;;4966314;28;19918;-81
2022/08/22 12:23:38;;;;;;;6.05;2.40;;;26.30;90.30;;;;;;4965349;28;20092;-81
2022/08/22 12:26:42;;;;;;;5.85;2.15;;;26.30;88.20;;;;;;4954565;28;20042;-81
2022/08/22 12:29:43;;;;;;;6.88;2.10;;;26.30;88.50;;;;;;4943464;28;20043;-81
2022/08/22 12:32:33;;;;;;;9.05;2.88;;;26.30;88.90;;;;;;5030827;28;20508;-82
2022/08/22 12:35:11;;;;;;;5.88;2.15;;;26.30;89.90;;;;;;4953235;28;20047;-81
2022/08/22 12:38:03;;;;;;;6.07;2.17;;;26.40;88.50;;;;;;4964707;28;20039;-81
2022/08/22 12:40:50;;;;;;;6.03;2.25;;;26.50;90.20;;;;;;4943127;28;20058;-82
2022/08/22 12:43:45;;;;;;;7.05;2.42;;;26.60;90.10;;;;;;4969589;28;20042;-81
2022/08/22 12:46:48;;;;;;;5.10;2.40;;;26.70;90.00;;;;;;4958842;28;20088;-81
2022/08/22 12:50:04;;;;;;;5.40;2.10;;;26.80;88.40;;;;;;4940625;28;20055;-81
2022/08/22 12:52:58;;;;;;;7.88;2.30;;;26.80;88.40;;;;;;4972943;28;20051;-81
2022/08/22 12:55:39;;;;;;;7.15;2.60;;;26.80;88.90;;;;;;4960911;28;20046;-81
2022/08/22 12:58:32;;;;;;;6.57;2.20;;;26.80;88.60;;;;;;4951537;28;20054;-81
2022/08/22 13:01:01;;;;;;;7.57;2.28;;;26.90;87.20;;;;;;4958043;28;20451;-81
2022/08/22 13:03:52;;;;;;;4.50;2.10;;;26.90;88.00;;;;;;4957089;28;20066;-81
2022/08/22 13:06:36;;;;;;;5.38;2.50;;;26.90;85.80;;;;;;4956893;28;20507;-81
2022/08/22 13:09:17;;;;;;;5.65;2.53;;;26.90;85.40;;;;;;4934828;28;20050;-82
2022/08/22 13:11:46;;;;;;;7.63;2.60;;;26.90;83.40;;;;;;4941146;28;20046;-81
2022/08/22 13:14:17;;;;;;;5.22;2.35;;;26.80;84.30;;;;;;4957406;28;20078;-80
2022/08/22 13:16:47;;;;;;;7.68;2.83;;;26.60;84.40;;;;;;4954231;28;20081;-82
2022/08/22 13:19:21;;;;;;;6.80;2.53;;;26.40;85.00;;;;;;4958905;28;20035;-81
2022/08/22 13:22:08;;;;;;;5.72;2.00;;;26.10;84.50;;;;;;4961896;28;20539;-80
2022/08/22 13:24:51;;;;;;;7.15;2.90;;;25.90;85.60;;;;;;4949599;28;20283;-80
2022/08/22 13:27:35;;;;;;;6.03;2.40;;;25.80;83.90;;;;;;4967659;28;20506;-80
2022/08/22 13:30:07;;;;;;;7.90;2.83;;;25.60;84.90;;;;;;4964483;28;20047;-80
2022/08/22 13:32:36;;;;;;;4.75;2.47;;;25.60;86.10;;;;;;4953728;28;20492;-81
2022/08/22 13:35:04;;;;;;;5.90;2.78;;;25.70;86.60;;;;;;4945433;28;20042;-81
2022/08/22 13:37:39;;;;;;;8.55;2.60;;;25.70;86.50;;;;;;4946454;28;20131;-80
2022/08/22 13:40:12;;;;;;;6.88;2.80;;;25.80;86.60;;;;;;4953669;28;20051;-79
2022/08/22 13:43:10;;;;;;;8.35;2.50;;;25.80;86.50;;;;;;4945640;28;20053;-79
2022/08/22 13:45:41;;;;;;;6.40;2.40;;;25.90;86.80;;;;;;4970402;28;20051;-81
2022/08/22 13:48:11;;;;;;;7.88;2.50;;;25.90;86.90;;;;;;4952223;28;20559;-81
2022/08/22 13:51:02;;;;;;;7.15;2.70;;;25.90;86.80;;;;;;4952491;28;20039;-81
2022/08/22 13:53:39;;;;;;;4.85;2.30;;;25.90;86.30;;;;;;4966717;28;20088;-80
2022/08/22 13:56:11;;;;;;;5.88;2.10;;;25.90;86.50;;;;;;4932321;28;20041;-80
2022/08/22 13:58:41;;;;;;;7.50;2.50;;;26.00;86.20;;;;;;4954610;28;20574;-79
2022/08/22 14:01:41;;;;;;;6.25;2.33;;;26.00;85.80;;;;;;4959614;28;20077;-80
2022/08/22 14:04:10;;;;;;;5.85;2.38;;;26.10;84.70;;;;;;4950561;28;20043;-81